Flight Briefing for CPX101

Departure Arrival
Los Angeles International Airport (KLAX)
Click to view FAA NOTAMS
Miami International Airport (KMIA)
Click to view FAA NOTAMS
Departure Time Arrival Time
N/A N/A
Aircraft Distance
B747-400BCF 2091nm
Departure METAR Arrival METAR
KLAX 181553Z 11005KT 10SM FEW012 18/09 A2999 RMK AO2 SLP152 T01780089 KMIA 181553Z 29005KT 10SM FEW017 23/20 A3007 RMK AO2 SLP181 T02330200
Suggested Route
DOTSS2 CNERY BLH J65 KOFFA J169 TFD J50 ELP J2 JCT J86 LEV Q102 BAGGS SSCOT5


View recent IFR Routes data
Notes



Charts and Procedures

Charts for KLAX
No chart available
Charts for KMIA
No chart available

Windy.com Weather Map